Terminal Aerodrome Forecast
Issued by NWS

Home | Current Version | Previous Version | Text Only | Print | Product List | Glossary On
Versions: 1 2 3 4 5 6 7 8 9 10 11 12 13 14
000
FTUS45 KREV 212300
TAFMMH
TAF
KMMH 212340Z 2200/2224 23012G19KT P6SM SCT040 BKN100
     FM220100 29011KT P6SM SCT100
     FM220600 VRB03KT P6SM SKC
     FM222100 22012G18KT P6SM FEW030 SCT200
      AMD NOT SKED 2202/2214=

USA.gov is the U.S. government's official web portal to all federal, state and local government web resources and services.